sensor_id;sensor_type;location;lat;lon;timestamp;P1;durP1;ratioP1;P2;durP2;ratioP2
52124;SDS011;38119;52.710;6.398;2022-08-24T00:01:04;21.80;;;18.80;;
52124;SDS011;38119;52.710;6.398;2022-08-24T00:03:31;21.50;;;17.98;;
52124;SDS011;38119;52.710;6.398;2022-08-24T00:05:58;23.88;;;19.35;;
52124;SDS011;38119;52.710;6.398;2022-08-24T00:08:24;21.73;;;19.33;;
52124;SDS011;38119;52.710;6.398;2022-08-24T00:10:50;20.55;;;18.20;;
52124;SDS011;38119;52.710;6.398;2022-08-24T00:13:16;21.38;;;18.38;;
52124;SDS011;38119;52.710;6.398;2022-08-24T00:15:42;17.98;;;16.08;;
52124;SDS011;38119;52.710;6.398;2022-08-24T00:18:08;13.60;;;12.25;;
52124;SDS011;38119;52.710;6.398;2022-08-24T00:20:35;17.75;;;15.93;;
52124;SDS011;38119;52.710;6.398;2022-08-24T00:23:01;20.35;;;17.70;;
52124;SDS011;38119;52.710;6.398;2022-08-24T00:25:27;20.25;;;18.13;;
52124;SDS011;38119;52.710;6.398;2022-08-24T00:27:53;21.92;;;19.15;;
52124;SDS011;38119;52.710;6.398;2022-08-24T00:30:19;21.25;;;19.00;;
52124;SDS011;38119;52.710;6.398;2022-08-24T00:32:45;19.25;;;17.17;;
52124;SDS011;38119;52.710;6.398;2022-08-24T00:35:12;18.63;;;16.73;;
52124;SDS011;38119;52.710;6.398;2022-08-24T00:37:46;18.92;;;16.92;;
52124;SDS011;38119;52.710;6.398;2022-08-24T00:40:18;19.52;;;17.23;;
52124;SDS011;38119;52.710;6.398;2022-08-24T00:42:47;20.67;;;17.75;;
52124;SDS011;38119;52.710;6.398;2022-08-24T00:45:16;21.40;;;18.98;;
52124;SDS011;38119;52.710;6.398;2022-08-24T00:47:53;22.50;;;19.65;;
52124;SDS011;38119;52.710;6.398;2022-08-24T00:50:32;22.17;;;19.23;;
52124;SDS011;38119;52.710;6.398;2022-08-24T00:53:07;22.60;;;18.45;;
52124;SDS011;38119;52.710;6.398;2022-08-24T00:55:38;23.80;;;19.17;;
52124;SDS011;38119;52.710;6.398;2022-08-24T00:58:14;21.23;;;19.00;;
52124;SDS011;38119;52.710;6.398;2022-08-24T01:00:45;22.93;;;19.97;;
52124;SDS011;38119;52.710;6.398;2022-08-24T01:03:14;28.55;;;21.58;;
52124;SDS011;38119;52.710;6.398;2022-08-24T01:05:41;29.13;;;20.48;;
52124;SDS011;38119;52.710;6.398;2022-08-24T01:08:09;20.05;;;17.83;;
52124;SDS011;38119;52.710;6.398;2022-08-24T01:10:40;22.83;;;17.38;;
52124;SDS011;38119;52.710;6.398;2022-08-24T01:13:10;17.80;;;15.90;;
52124;SDS011;38119;52.710;6.398;2022-08-24T01:15:40;17.02;;;15.32;;
52124;SDS011;38119;52.710;6.398;2022-08-24T01:18:10;20.23;;;17.67;;
52124;SDS011;38119;52.710;6.398;2022-08-24T01:21:00;19.15;;;17.15;;
52124;SDS011;38119;52.710;6.398;2022-08-24T01:24:09;18.35;;;16.38;;
52124;SDS011;38119;52.710;6.398;2022-08-24T01:26:44;18.73;;;15.88;;
52124;SDS011;38119;52.710;6.398;2022-08-24T01:29:15;17.55;;;15.75;;
52124;SDS011;38119;52.710;6.398;2022-08-24T01:31:46;19.83;;;15.30;;
52124;SDS011;38119;52.710;6.398;2022-08-24T01:34:12;17.25;;;15.50;;
52124;SDS011;38119;52.710;6.398;2022-08-24T01:36:39;19.55;;;17.30;;
52124;SDS011;38119;52.710;6.398;2022-08-24T01:41:45;14.25;;;12.75;;
52124;SDS011;38119;52.710;6.398;2022-08-24T01:44:11;15.38;;;13.70;;
52124;SDS011;38119;52.710;6.398;2022-08-24T01:46:37;14.63;;;11.55;;
52124;SDS011;38119;52.710;6.398;2022-08-24T01:49:08;16.00;;;14.30;;
52124;SDS011;38119;52.710;6.398;2022-08-24T01:51:34;17.23;;;15.43;;
52124;SDS011;38119;52.710;6.398;2022-08-24T01:54:00;17.40;;;15.35;;
52124;SDS011;38119;52.710;6.398;2022-08-24T01:56:27;17.08;;;15.48;;
52124;SDS011;38119;52.710;6.398;2022-08-24T01:58:55;18.48;;;16.48;;
52124;SDS011;38119;52.710;6.398;2022-08-24T02:01:21;19.38;;;17.45;;
52124;SDS011;38119;52.710;6.398;2022-08-24T02:03:47;21.35;;;17.83;;
52124;SDS011;38119;52.710;6.398;2022-08-24T02:06:12;21.00;;;17.70;;
52124;SDS011;38119;52.710;6.398;2022-08-24T02:08:38;20.38;;;18.27;;
52124;SDS011;38119;52.710;6.398;2022-08-24T02:11:07;21.75;;;19.48;;
52124;SDS011;38119;52.710;6.398;2022-08-24T02:13:34;23.60;;;20.45;;
52124;SDS011;38119;52.710;6.398;2022-08-24T02:16:01;23.52;;;19.80;;
52124;SDS011;38119;52.710;6.398;2022-08-24T02:18:27;16.05;;;14.35;;
52124;SDS011;38119;52.710;6.398;2022-08-24T02:20:53;15.45;;;13.57;;
52124;SDS011;38119;52.710;6.398;2022-08-24T02:23:19;13.98;;;12.55;;
52124;SDS011;38119;52.710;6.398;2022-08-24T02:25:45;14.82;;;13.32;;
52124;SDS011;38119;52.710;6.398;2022-08-24T02:28:11;16.98;;;15.18;;
52124;SDS011;38119;52.710;6.398;2022-08-24T02:30:38;17.83;;;15.23;;
52124;SDS011;38119;52.710;6.398;2022-08-24T02:33:04;17.75;;;15.95;;
52124;SDS011;38119;52.710;6.398;2022-08-24T02:35:32;18.42;;;16.30;;
52124;SDS011;38119;52.710;6.398;2022-08-24T02:37:57;18.38;;;16.55;;
52124;SDS011;38119;52.710;6.398;2022-08-24T02:40:23;17.42;;;15.63;;
52124;SDS011;38119;52.710;6.398;2022-08-24T02:42:49;18.25;;;16.35;;
52124;SDS011;38119;52.710;6.398;2022-08-24T02:45:15;17.27;;;15.43;;
52124;SDS011;38119;52.710;6.398;2022-08-24T02:47:42;17.75;;;15.95;;
52124;SDS011;38119;52.710;6.398;2022-08-24T02:50:10;15.50;;;13.90;;
52124;SDS011;38119;52.710;6.398;2022-08-24T02:52:39;12.48;;;11.18;;
52124;SDS011;38119;52.710;6.398;2022-08-24T02:55:07;9.60;;;8.70;;
52124;SDS011;38119;52.710;6.398;2022-08-24T02:57:35;8.52;;;7.72;;
52124;SDS011;38119;52.710;6.398;2022-08-24T03:00:03;8.48;;;7.50;;
52124;SDS011;38119;52.710;6.398;2022-08-24T03:02:32;10.07;;;9.07;;
52124;SDS011;38119;52.710;6.398;2022-08-24T03:04:57;10.38;;;9.38;;
52124;SDS011;38119;52.710;6.398;2022-08-24T03:07:23;11.65;;;10.45;;
52124;SDS011;38119;52.710;6.398;2022-08-24T03:09:48;13.20;;;11.25;;
52124;SDS011;38119;52.710;6.398;2022-08-24T03:12:14;14.93;;;13.43;;
52124;SDS011;38119;52.710;6.398;2022-08-24T03:14:40;16.75;;;14.95;;
52124;SDS011;38119;52.710;6.398;2022-08-24T03:17:05;17.23;;;15.25;;
52124;SDS011;38119;52.710;6.398;2022-08-24T03:19:31;15.27;;;13.70;;
52124;SDS011;38119;52.710;6.398;2022-08-24T03:21:57;14.02;;;12.63;;
52124;SDS011;38119;52.710;6.398;2022-08-24T03:24:23;16.48;;;14.38;;
52124;SDS011;38119;52.710;6.398;2022-08-24T03:26:49;15.20;;;13.70;;
52124;SDS011;38119;52.710;6.398;2022-08-24T03:29:15;16.38;;;14.32;;
52124;SDS011;38119;52.710;6.398;2022-08-24T03:31:41;16.95;;;15.13;;
52124;SDS011;38119;52.710;6.398;2022-08-24T03:34:07;17.13;;;15.32;;
52124;SDS011;38119;52.710;6.398;2022-08-24T03:36:32;18.70;;;16.70;;
52124;SDS011;38119;52.710;6.398;2022-08-24T03:38:58;18.13;;;16.23;;
52124;SDS011;38119;52.710;6.398;2022-08-24T03:41:24;16.67;;;14.98;;
52124;SDS011;38119;52.710;6.398;2022-08-24T03:43:51;19.02;;;16.02;;
52124;SDS011;38119;52.710;6.398;2022-08-24T03:46:21;18.00;;;15.75;;
52124;SDS011;38119;52.710;6.398;2022-08-24T03:48:53;17.98;;;16.10;;
52124;SDS011;38119;52.710;6.398;2022-08-24T03:51:22;17.17;;;15.38;;
52124;SDS011;38119;52.710;6.398;2022-08-24T03:53:50;17.40;;;15.50;;
52124;SDS011;38119;52.710;6.398;2022-08-24T03:56:16;17.52;;;14.38;;
52124;SDS011;38119;52.710;6.398;2022-08-24T03:58:42;16.88;;;14.85;;
52124;SDS011;38119;52.710;6.398;2022-08-24T04:01:09;18.45;;;15.95;;
52124;SDS011;38119;52.710;6.398;2022-08-24T04:03:36;17.13;;;15.23;;
52124;SDS011;38119;52.710;6.398;2022-08-24T04:06:03;17.45;;;15.55;;
52124;SDS011;38119;52.710;6.398;2022-08-24T04:08:29;19.92;;;16.70;;
52124;SDS011;38119;52.710;6.398;2022-08-24T04:10:56;19.35;;;17.25;;
52124;SDS011;38119;52.710;6.398;2022-08-24T04:13:22;17.50;;;15.50;;
52124;SDS011;38119;52.710;6.398;2022-08-24T04:15:49;16.98;;;15.10;;
52124;SDS011;38119;52.710;6.398;2022-08-24T04:18:17;16.40;;;14.70;;
52124;SDS011;38119;52.710;6.398;2022-08-24T04:20:44;17.15;;;15.35;;
52124;SDS011;38119;52.710;6.398;2022-08-24T04:23:10;17.13;;;15.27;;
52124;SDS011;38119;52.710;6.398;2022-08-24T04:25:40;16.02;;;14.45;;
52124;SDS011;38119;52.710;6.398;2022-08-24T04:28:07;17.08;;;15.38;;
52124;SDS011;38119;52.710;6.398;2022-08-24T04:30:32;18.45;;;16.55;;
52124;SDS011;38119;52.710;6.398;2022-08-24T04:32:58;19.52;;;17.50;;
52124;SDS011;38119;52.710;6.398;2022-08-24T04:35:23;19.08;;;17.10;;
52124;SDS011;38119;52.710;6.398;2022-08-24T04:37:49;18.42;;;16.17;;
52124;SDS011;38119;52.710;6.398;2022-08-24T04:40:15;16.75;;;14.95;;
52124;SDS011;38119;52.710;6.398;2022-08-24T04:42:41;16.98;;;14.10;;
52124;SDS011;38119;52.710;6.398;2022-08-24T04:45:07;15.48;;;13.85;;
52124;SDS011;38119;52.710;6.398;2022-08-24T04:47:33;16.60;;;13.77;;
52124;SDS011;38119;52.710;6.398;2022-08-24T04:49:59;17.83;;;15.18;;
52124;SDS011;38119;52.710;6.398;2022-08-24T04:52:27;15.98;;;14.38;;
52124;SDS011;38119;52.710;6.398;2022-08-24T04:54:52;18.70;;;16.05;;
52124;SDS011;38119;52.710;6.398;2022-08-24T04:57:18;19.15;;;17.15;;
52124;SDS011;38119;52.710;6.398;2022-08-24T04:59:44;20.08;;;17.70;;
52124;SDS011;38119;52.710;6.398;2022-08-24T05:02:11;21.05;;;18.85;;
52124;SDS011;38119;52.710;6.398;2022-08-24T05:04:37;22.60;;;20.20;;
52124;SDS011;38119;52.710;6.398;2022-08-24T05:07:03;22.10;;;19.70;;
52124;SDS011;38119;52.710;6.398;2022-08-24T05:09:29;23.17;;;20.67;;
52124;SDS011;38119;52.710;6.398;2022-08-24T05:11:55;22.92;;;20.42;;
52124;SDS011;38119;52.710;6.398;2022-08-24T05:14:21;22.13;;;19.83;;
52124;SDS011;38119;52.710;6.398;2022-08-24T05:16:47;20.08;;;18.02;;
52124;SDS011;38119;52.710;6.398;2022-08-24T05:19:12;16.85;;;15.15;;
52124;SDS011;38119;52.710;6.398;2022-08-24T05:21:38;14.43;;;11.95;;
52124;SDS011;38119;52.710;6.398;2022-08-24T05:24:04;12.27;;;11.10;;
52124;SDS011;38119;52.710;6.398;2022-08-24T05:26:30;12.35;;;11.15;;
52124;SDS011;38119;52.710;6.398;2022-08-24T05:28:57;12.65;;;11.45;;
52124;SDS011;38119;52.710;6.398;2022-08-24T05:31:27;14.82;;;13.23;;
52124;SDS011;38119;52.710;6.398;2022-08-24T05:33:55;15.65;;;13.77;;
52124;SDS011;38119;52.710;6.398;2022-08-24T05:36:23;15.80;;;14.18;;
52124;SDS011;38119;52.710;6.398;2022-08-24T05:38:53;18.13;;;16.23;;
52124;SDS011;38119;52.710;6.398;2022-08-24T05:41:21;20.75;;;18.65;;
52124;SDS011;38119;52.710;6.398;2022-08-24T05:43:47;22.27;;;19.98;;
52124;SDS011;38119;52.710;6.398;2022-08-24T05:46:13;24.52;;;21.17;;
52124;SDS011;38119;52.710;6.398;2022-08-24T05:48:39;23.65;;;21.10;;
52124;SDS011;38119;52.710;6.398;2022-08-24T05:51:06;23.35;;;20.90;;
52124;SDS011;38119;52.710;6.398;2022-08-24T05:53:33;24.80;;;21.38;;
52124;SDS011;38119;52.710;6.398;2022-08-24T05:56:03;24.67;;;21.77;;
52124;SDS011;38119;52.710;6.398;2022-08-24T05:58:30;30.97;;;27.77;;
52124;SDS011;38119;52.710;6.398;2022-08-24T06:00:56;34.13;;;30.27;;
52124;SDS011;38119;52.710;6.398;2022-08-24T06:03:23;33.65;;;29.98;;
52124;SDS011;38119;52.710;6.398;2022-08-24T06:05:50;37.25;;;29.80;;
52124;SDS011;38119;52.710;6.398;2022-08-24T06:08:17;32.88;;;29.15;;
52124;SDS011;38119;52.710;6.398;2022-08-24T06:10:43;32.58;;;28.58;;
52124;SDS011;38119;52.710;6.398;2022-08-24T06:13:14;32.63;;;27.73;;
52124;SDS011;38119;52.710;6.398;2022-08-24T06:15:41;33.55;;;28.45;;
52124;SDS011;38119;52.710;6.398;2022-08-24T06:18:07;33.10;;;29.38;;
52124;SDS011;38119;52.710;6.398;2022-08-24T06:20:36;34.72;;;30.75;;
52124;SDS011;38119;52.710;6.398;2022-08-24T06:23:05;38.95;;;33.17;;
52124;SDS011;38119;52.710;6.398;2022-08-24T06:25:30;37.38;;;33.40;;
52124;SDS011;38119;52.710;6.398;2022-08-24T06:28:15;40.97;;;34.75;;
52124;SDS011;38119;52.710;6.398;2022-08-24T06:30:40;40.50;;;35.35;;
52124;SDS011;38119;52.710;6.398;2022-08-24T06:33:06;49.08;;;36.85;;
52124;SDS011;38119;52.710;6.398;2022-08-24T06:35:33;40.63;;;35.30;;
52124;SDS011;38119;52.710;6.398;2022-08-24T06:37:59;39.47;;;35.22;;
52124;SDS011;38119;52.710;6.398;2022-08-24T06:40:25;49.90;;;40.10;;
52124;SDS011;38119;52.710;6.398;2022-08-24T06:42:51;42.53;;;35.97;;
52124;SDS011;38119;52.710;6.398;2022-08-24T06:45:17;48.30;;;40.30;;
52124;SDS011;38119;52.710;6.398;2022-08-24T06:47:43;45.83;;;38.90;;
52124;SDS011;38119;52.710;6.398;2022-08-24T06:50:09;52.40;;;42.42;;
52124;SDS011;38119;52.710;6.398;2022-08-24T06:52:36;56.35;;;43.47;;
52124;SDS011;38119;52.710;6.398;2022-08-24T06:55:03;56.63;;;41.50;;
52124;SDS011;38119;52.710;6.398;2022-08-24T06:57:30;55.83;;;43.80;;
52124;SDS011;38119;52.710;6.398;2022-08-24T06:59:56;50.63;;;41.63;;
52124;SDS011;38119;52.710;6.398;2022-08-24T07:02:24;52.95;;;40.92;;
52124;SDS011;38119;52.710;6.398;2022-08-24T07:04:49;50.78;;;41.72;;
52124;SDS011;38119;52.710;6.398;2022-08-24T07:07:15;55.63;;;43.38;;
52124;SDS011;38119;52.710;6.398;2022-08-24T07:09:41;46.97;;;41.17;;
52124;SDS011;38119;52.710;6.398;2022-08-24T07:12:07;45.28;;;38.53;;
52124;SDS011;38119;52.710;6.398;2022-08-24T07:14:33;51.90;;;43.20;;
52124;SDS011;38119;52.710;6.398;2022-08-24T07:16:58;55.35;;;44.45;;
52124;SDS011;38119;52.710;6.398;2022-08-24T07:19:24;52.45;;;41.80;;
52124;SDS011;38119;52.710;6.398;2022-08-24T07:21:49;50.35;;;41.72;;
52124;SDS011;38119;52.710;6.398;2022-08-24T07:24:19;49.17;;;42.72;;
52124;SDS011;38119;52.710;6.398;2022-08-24T07:26:45;53.20;;;42.40;;
52124;SDS011;38119;52.710;6.398;2022-08-24T07:29:11;47.03;;;40.08;;
52124;SDS011;38119;52.710;6.398;2022-08-24T07:31:39;48.90;;;39.83;;
52124;SDS011;38119;52.710;6.398;2022-08-24T07:34:06;48.55;;;40.38;;
52124;SDS011;38119;52.710;6.398;2022-08-24T07:36:33;42.22;;;37.65;;
52124;SDS011;38119;52.710;6.398;2022-08-24T07:39:00;44.95;;;38.55;;
52124;SDS011;38119;52.710;6.398;2022-08-24T07:41:30;42.53;;;35.83;;
52124;SDS011;38119;52.710;6.398;2022-08-24T07:43:56;39.45;;;34.28;;
52124;SDS011;38119;52.710;6.398;2022-08-24T07:46:22;38.00;;;33.22;;
52124;SDS011;38119;52.710;6.398;2022-08-24T07:48:48;35.75;;;31.73;;
52124;SDS011;38119;52.710;6.398;2022-08-24T07:51:15;41.17;;;32.22;;
52124;SDS011;38119;52.710;6.398;2022-08-24T07:53:43;31.15;;;27.42;;
52124;SDS011;38119;52.710;6.398;2022-08-24T07:56:09;30.67;;;25.77;;
52124;SDS011;38119;52.710;6.398;2022-08-24T07:58:36;30.05;;;24.50;;
52124;SDS011;38119;52.710;6.398;2022-08-24T08:01:02;32.17;;;25.02;;
52124;SDS011;38119;52.710;6.398;2022-08-24T08:03:29;30.88;;;25.10;;
52124;SDS011;38119;52.710;6.398;2022-08-24T08:05:58;26.42;;;23.60;;
52124;SDS011;38119;52.710;6.398;2022-08-24T08:08:26;26.98;;;23.80;;
52124;SDS011;38119;52.710;6.398;2022-08-24T08:10:53;27.98;;;24.77;;
52124;SDS011;38119;52.710;6.398;2022-08-24T08:13:19;27.85;;;24.48;;
52124;SDS011;38119;52.710;6.398;2022-08-24T08:15:45;28.17;;;24.55;;
52124;SDS011;38119;52.710;6.398;2022-08-24T08:18:11;29.58;;;23.52;;
52124;SDS011;38119;52.710;6.398;2022-08-24T08:20:39;25.65;;;20.63;;
52124;SDS011;38119;52.710;6.398;2022-08-24T08:23:06;25.92;;;19.05;;
52124;SDS011;38119;52.710;6.398;2022-08-24T08:25:52;21.50;;;16.60;;
52124;SDS011;38119;52.710;6.398;2022-08-24T08:28:19;22.13;;;18.10;;
52124;SDS011;38119;52.710;6.398;2022-08-24T08:30:44;20.52;;;16.30;;
52124;SDS011;38119;52.710;6.398;2022-08-24T08:33:10;23.50;;;18.13;;
52124;SDS011;38119;52.710;6.398;2022-08-24T08:35:36;21.20;;;17.67;;
52124;SDS011;38119;52.710;6.398;2022-08-24T08:38:03;21.42;;;17.88;;
52124;SDS011;38119;52.710;6.398;2022-08-24T08:57:37;21.45;;;12.65;;
52124;SDS011;38119;52.710;6.398;2022-08-24T09:22:04;12.35;;;10.70;;
52124;SDS011;38119;52.710;6.398;2022-08-24T09:30:26;11.48;;;9.38;;
52124;SDS011;38119;52.710;6.398;2022-08-24T10:00:17;7.38;;;4.88;;
52124;SDS011;38119;52.710;6.398;2022-08-24T10:02:54;7.75;;;5.05;;
52124;SDS011;38119;52.710;6.398;2022-08-24T10:05:41;7.28;;;5.28;;
52124;SDS011;38119;52.710;6.398;2022-08-24T10:08:57;7.88;;;5.05;;
52124;SDS011;38119;52.710;6.398;2022-08-24T10:22:10;8.23;;;4.93;;
52124;SDS011;38119;52.710;6.398;2022-08-24T10:32:55;4.88;;;3.30;;
52124;SDS011;38119;52.710;6.398;2022-08-24T10:38:50;7.22;;;3.70;;
52124;SDS011;38119;52.710;6.398;2022-08-24T10:55:56;4.45;;;2.70;;
52124;SDS011;38119;52.710;6.398;2022-08-24T11:01:11;4.50;;;2.25;;
52124;SDS011;38119;52.710;6.398;2022-08-24T11:03:52;3.15;;;1.95;;
52124;SDS011;38119;52.710;6.398;2022-08-24T11:06:18;2.63;;;1.92;;
52124;SDS011;38119;52.710;6.398;2022-08-24T11:08:54;3.70;;;1.90;;
52124;SDS011;38119;52.710;6.398;2022-08-24T11:11:31;2.58;;;2.10;;
52124;SDS011;38119;52.710;6.398;2022-08-24T11:14:03;4.45;;;2.13;;
52124;SDS011;38119;52.710;6.398;2022-08-24T11:16:46;2.85;;;2.17;;
52124;SDS011;38119;52.710;6.398;2022-08-24T11:19:13;4.00;;;2.30;;
52124;SDS011;38119;52.710;6.398;2022-08-24T11:21:54;4.57;;;2.17;;
52124;SDS011;38119;52.710;6.398;2022-08-24T11:26:57;3.30;;;2.20;;
52124;SDS011;38119;52.710;6.398;2022-08-24T11:32:24;3.63;;;2.10;;
52124;SDS011;38119;52.710;6.398;2022-08-24T11:35:22;3.42;;;1.85;;
52124;SDS011;38119;52.710;6.398;2022-08-24T11:41:04;2.83;;;1.83;;
52124;SDS011;38119;52.710;6.398;2022-08-24T11:43:35;3.33;;;1.92;;
52124;SDS011;38119;52.710;6.398;2022-08-24T11:48:38;2.45;;;2.13;;
52124;SDS011;38119;52.710;6.398;2022-08-24T11:54:06;2.63;;;2.10;;
52124;SDS011;38119;52.710;6.398;2022-08-24T11:59:35;2.22;;;1.80;;
52124;SDS011;38119;52.710;6.398;2022-08-24T12:03:09;2.22;;;2.00;;
52124;SDS011;38119;52.710;6.398;2022-08-24T12:07:39;2.10;;;1.70;;
52124;SDS011;38119;52.710;6.398;2022-08-24T12:18:03;1.88;;;1.73;;
52124;SDS011;38119;52.710;6.398;2022-08-24T12:20:54;1.60;;;1.50;;
52124;SDS011;38119;52.710;6.398;2022-08-24T12:23:25;1.50;;;1.40;;
52124;SDS011;38119;52.710;6.398;2022-08-24T12:26:24;1.50;;;1.40;;
52124;SDS011;38119;52.710;6.398;2022-08-24T12:34:54;1.95;;;1.85;;
52124;SDS011;38119;52.710;6.398;2022-08-24T12:40:11;1.80;;;1.70;;
52124;SDS011;38119;52.710;6.398;2022-08-24T12:43:00;13.32;;;1.83;;
52124;SDS011;38119;52.710;6.398;2022-08-24T12:45:30;1.60;;;1.50;;
52124;SDS011;38119;52.710;6.398;2022-08-24T13:01:19;2.38;;;1.50;;
52124;SDS011;38119;52.710;6.398;2022-08-24T13:03:49;1.50;;;1.40;;
52124;SDS011;38119;52.710;6.398;2022-08-24T13:09:16;1.73;;;1.42;;
52124;SDS011;38119;52.710;6.398;2022-08-24T13:33:18;1.50;;;1.40;;
52124;SDS011;38119;52.710;6.398;2022-08-24T13:46:59;4.00;;;1.70;;
52124;SDS011;38119;52.710;6.398;2022-08-24T13:57:51;1.80;;;1.60;;
52124;SDS011;38119;52.710;6.398;2022-08-24T14:00:51;3.30;;;1.35;;
52124;SDS011;38119;52.710;6.398;2022-08-24T14:03:35;1.83;;;1.48;;
52124;SDS011;38119;52.710;6.398;2022-08-24T14:23:12;3.65;;;1.60;;
52124;SDS011;38119;52.710;6.398;2022-08-24T14:29:40;1.77;;;1.58;;
52124;SDS011;38119;52.710;6.398;2022-08-24T14:34:27;1.60;;;1.50;;
52124;SDS011;38119;52.710;6.398;2022-08-24T14:37:04;2.67;;;1.60;;
52124;SDS011;38119;52.710;6.398;2022-08-24T14:45:19;2.90;;;1.65;;
52124;SDS011;38119;52.710;6.398;2022-08-24T14:48:18;1.60;;;1.50;;
52124;SDS011;38119;52.710;6.398;2022-08-24T14:51:08;2.15;;;1.67;;
52124;SDS011;38119;52.710;6.398;2022-08-24T14:59:21;2.08;;;1.70;;
52124;SDS011;38119;52.710;6.398;2022-08-24T15:07:38;2.20;;;1.60;;
52124;SDS011;38119;52.710;6.398;2022-08-24T15:10:13;2.13;;;1.77;;
52124;SDS011;38119;52.710;6.398;2022-08-24T15:12:44;1.60;;;1.50;;
52124;SDS011;38119;52.710;6.398;2022-08-24T15:15:23;1.60;;;1.50;;
52124;SDS011;38119;52.710;6.398;2022-08-24T15:18:03;3.28;;;1.85;;
52124;SDS011;38119;52.710;6.398;2022-08-24T15:29:29;3.10;;;1.63;;
52124;SDS011;38119;52.710;6.398;2022-08-24T15:31:59;1.95;;;1.60;;
52124;SDS011;38119;52.710;6.398;2022-08-24T15:37:01;3.55;;;1.85;;
52124;SDS011;38119;52.710;6.398;2022-08-24T15:39:27;2.10;;;1.80;;
52124;SDS011;38119;52.710;6.398;2022-08-24T15:41:54;2.00;;;1.80;;
52124;SDS011;38119;52.710;6.398;2022-08-24T15:44:27;2.10;;;1.88;;
52124;SDS011;38119;52.710;6.398;2022-08-24T15:47:09;2.05;;;1.85;;
52124;SDS011;38119;52.710;6.398;2022-08-24T15:49:52;2.17;;;2.00;;
52124;SDS011;38119;52.710;6.398;2022-08-24T15:55:14;2.58;;;2.08;;
52124;SDS011;38119;52.710;6.398;2022-08-24T15:57:52;3.40;;;2.00;;
52124;SDS011;38119;52.710;6.398;2022-08-24T16:00:20;2.00;;;1.80;;
52124;SDS011;38119;52.710;6.398;2022-08-24T16:03:26;2.33;;;2.05;;
52124;SDS011;38119;52.710;6.398;2022-08-24T16:06:17;3.25;;;2.25;;
52124;SDS011;38119;52.710;6.398;2022-08-24T16:09:08;1.98;;;1.88;;
52124;SDS011;38119;52.710;6.398;2022-08-24T16:14:02;2.35;;;1.90;;
52124;SDS011;38119;52.710;6.398;2022-08-24T16:16:39;2.15;;;1.95;;
52124;SDS011;38119;52.710;6.398;2022-08-24T16:19:18;1.85;;;1.73;;
52124;SDS011;38119;52.710;6.398;2022-08-24T16:22:00;2.38;;;2.03;;
52124;SDS011;38119;52.710;6.398;2022-08-24T16:24:33;2.17;;;1.83;;
52124;SDS011;38119;52.710;6.398;2022-08-24T16:29:46;4.25;;;1.85;;
52124;SDS011;38119;52.710;6.398;2022-08-24T16:32:21;2.78;;;2.05;;
52124;SDS011;38119;52.710;6.398;2022-08-24T16:37:34;4.13;;;2.90;;
52124;SDS011;38119;52.710;6.398;2022-08-24T16:40:01;5.53;;;3.28;;
52124;SDS011;38119;52.710;6.398;2022-08-24T16:42:29;3.95;;;2.70;;
52124;SDS011;38119;52.710;6.398;2022-08-24T16:44:55;3.25;;;2.85;;
52124;SDS011;38119;52.710;6.398;2022-08-24T16:47:24;4.22;;;2.78;;
52124;SDS011;38119;52.710;6.398;2022-08-24T16:49:51;3.10;;;2.40;;
52124;SDS011;38119;52.710;6.398;2022-08-24T16:52:17;2.28;;;2.00;;
52124;SDS011;38119;52.710;6.398;2022-08-24T16:54:43;2.42;;;2.20;;
52124;SDS011;38119;52.710;6.398;2022-08-24T16:57:17;2.10;;;1.90;;
52124;SDS011;38119;52.710;6.398;2022-08-24T16:59:49;3.28;;;2.35;;
52124;SDS011;38119;52.710;6.398;2022-08-24T17:02:17;2.75;;;2.10;;
52124;SDS011;38119;52.710;6.398;2022-08-24T17:04:43;2.47;;;2.20;;
52124;SDS011;38119;52.710;6.398;2022-08-24T17:07:11;3.30;;;2.50;;
52124;SDS011;38119;52.710;6.398;2022-08-24T17:09:42;2.60;;;2.20;;
52124;SDS011;38119;52.710;6.398;2022-08-24T17:12:10;3.33;;;2.20;;
52124;SDS011;38119;52.710;6.398;2022-08-24T17:14:36;2.65;;;2.08;;
52124;SDS011;38119;52.710;6.398;2022-08-24T17:17:04;2.30;;;2.10;;
52124;SDS011;38119;52.710;6.398;2022-08-24T17:19:31;2.40;;;1.90;;
52124;SDS011;38119;52.710;6.398;2022-08-24T17:21:57;2.05;;;1.85;;
52124;SDS011;38119;52.710;6.398;2022-08-24T17:24:23;3.03;;;2.00;;
52124;SDS011;38119;52.710;6.398;2022-08-24T17:26:49;2.85;;;2.17;;
52124;SDS011;38119;52.710;6.398;2022-08-24T17:29:16;1.92;;;1.80;;
52124;SDS011;38119;52.710;6.398;2022-08-24T17:31:43;2.30;;;2.00;;
52124;SDS011;38119;52.710;6.398;2022-08-24T17:34:10;2.30;;;1.98;;
52124;SDS011;38119;52.710;6.398;2022-08-24T17:36:36;2.30;;;2.10;;
52124;SDS011;38119;52.710;6.398;2022-08-24T17:39:04;2.70;;;2.10;;
52124;SDS011;38119;52.710;6.398;2022-08-24T17:41:31;3.90;;;2.40;;
52124;SDS011;38119;52.710;6.398;2022-08-24T17:43:58;2.88;;;2.35;;
52124;SDS011;38119;52.710;6.398;2022-08-24T17:46:26;3.20;;;2.33;;
52124;SDS011;38119;52.710;6.398;2022-08-24T17:48:52;3.30;;;2.40;;
52124;SDS011;38119;52.710;6.398;2022-08-24T17:51:20;3.28;;;1.90;;
52124;SDS011;38119;52.710;6.398;2022-08-24T17:53:45;3.28;;;2.00;;
52124;SDS011;38119;52.710;6.398;2022-08-24T17:56:11;4.07;;;2.40;;
52124;SDS011;38119;52.710;6.398;2022-08-24T17:58:39;2.65;;;2.08;;
52124;SDS011;38119;52.710;6.398;2022-08-24T18:01:25;2.88;;;2.00;;
52124;SDS011;38119;52.710;6.398;2022-08-24T18:03:51;4.93;;;1.88;;
52124;SDS011;38119;52.710;6.398;2022-08-24T18:06:18;3.03;;;2.05;;
52124;SDS011;38119;52.710;6.398;2022-08-24T18:08:47;4.22;;;2.10;;
52124;SDS011;38119;52.710;6.398;2022-08-24T18:11:13;3.58;;;1.90;;
52124;SDS011;38119;52.710;6.398;2022-08-24T18:13:39;4.63;;;1.98;;
52124;SDS011;38119;52.710;6.398;2022-08-24T18:16:08;3.30;;;2.25;;
52124;SDS011;38119;52.710;6.398;2022-08-24T18:21:03;4.03;;;2.10;;
52124;SDS011;38119;52.710;6.398;2022-08-24T18:23:28;4.63;;;2.45;;
52124;SDS011;38119;52.710;6.398;2022-08-24T18:25:54;3.35;;;2.20;;
52124;SDS011;38119;52.710;6.398;2022-08-24T18:28:20;4.57;;;2.30;;
52124;SDS011;38119;52.710;6.398;2022-08-24T18:30:46;6.20;;;2.45;;
52124;SDS011;38119;52.710;6.398;2022-08-24T18:33:12;5.03;;;2.65;;
52124;SDS011;38119;52.710;6.398;2022-08-24T18:35:38;3.72;;;2.47;;
52124;SDS011;38119;52.710;6.398;2022-08-24T18:38:04;3.85;;;2.67;;
52124;SDS011;38119;52.710;6.398;2022-08-24T18:40:29;4.38;;;2.50;;
52124;SDS011;38119;52.710;6.398;2022-08-24T18:42:55;5.35;;;2.58;;
52124;SDS011;38119;52.710;6.398;2022-08-24T18:45:22;7.13;;;2.63;;
52124;SDS011;38119;52.710;6.398;2022-08-24T18:47:50;4.18;;;2.10;;
52124;SDS011;38119;52.710;6.398;2022-08-24T18:50:16;4.82;;;2.40;;
52124;SDS011;38119;52.710;6.398;2022-08-24T18:52:42;3.10;;;2.25;;
52124;SDS011;38119;52.710;6.398;2022-08-24T18:55:08;6.47;;;2.95;;
52124;SDS011;38119;52.710;6.398;2022-08-24T18:57:34;3.50;;;2.42;;
52124;SDS011;38119;52.710;6.398;2022-08-24T19:00:00;2.88;;;2.22;;
52124;SDS011;38119;52.710;6.398;2022-08-24T19:02:27;5.95;;;2.35;;
52124;SDS011;38119;52.710;6.398;2022-08-24T19:05:04;6.18;;;2.58;;
52124;SDS011;38119;52.710;6.398;2022-08-24T19:07:32;4.47;;;2.60;;
52124;SDS011;38119;52.710;6.398;2022-08-24T19:10:00;3.95;;;2.50;;
52124;SDS011;38119;52.710;6.398;2022-08-24T19:12:29;5.43;;;3.25;;
52124;SDS011;38119;52.710;6.398;2022-08-24T19:14:58;6.78;;;2.83;;
52124;SDS011;38119;52.710;6.398;2022-08-24T19:17:24;5.15;;;3.00;;
52124;SDS011;38119;52.710;6.398;2022-08-24T19:19:50;5.70;;;3.03;;